sensor_id;sensor_type;location;lat;lon;timestamp;P1;durP1;ratioP1;P2;durP2;ratioP2
47519;SDS011;33252;48.122;11.538;2023-11-22T00:01:09;11.85;;;7.60;;
47519;SDS011;33252;48.122;11.538;2023-11-22T00:03:36;15.68;;;7.28;;
47519;SDS011;33252;48.122;11.538;2023-11-22T00:06:01;12.40;;;7.47;;
47519;SDS011;33252;48.122;11.538;2023-11-22T00:08:27;13.57;;;6.65;;
47519;SDS011;33252;48.122;11.538;2023-11-22T00:10:54;9.43;;;6.43;;
47519;SDS011;33252;48.122;11.538;2023-11-22T00:13:19;15.05;;;7.55;;
47519;SDS011;33252;48.122;11.538;2023-11-22T00:15:45;12.38;;;6.28;;
47519;SDS011;33252;48.122;11.538;2023-11-22T00:18:10;13.40;;;6.60;;
47519;SDS011;33252;48.122;11.538;2023-11-22T00:20:36;15.98;;;8.18;;
47519;SDS011;33252;48.122;11.538;2023-11-22T00:23:02;13.10;;;7.93;;
47519;SDS011;33252;48.122;11.538;2023-11-22T00:25:28;12.02;;;7.22;;
47519;SDS011;33252;48.122;11.538;2023-11-22T00:27:54;14.63;;;7.75;;
47519;SDS011;33252;48.122;11.538;2023-11-22T00:30:20;13.73;;;7.65;;
47519;SDS011;33252;48.122;11.538;2023-11-22T00:32:45;15.48;;;7.43;;
47519;SDS011;33252;48.122;11.538;2023-11-22T00:35:11;10.18;;;6.22;;
47519;SDS011;33252;48.122;11.538;2023-11-22T00:37:37;12.38;;;7.35;;
47519;SDS011;33252;48.122;11.538;2023-11-22T00:40:03;13.60;;;7.75;;
47519;SDS011;33252;48.122;11.538;2023-11-22T00:42:36;14.30;;;8.23;;
47519;SDS011;33252;48.122;11.538;2023-11-22T00:45:03;13.27;;;7.70;;
47519;SDS011;33252;48.122;11.538;2023-11-22T00:47:30;14.38;;;7.90;;
47519;SDS011;33252;48.122;11.538;2023-11-22T00:49:57;14.90;;;7.13;;
47519;SDS011;33252;48.122;11.538;2023-11-22T00:52:23;15.32;;;7.20;;
47519;SDS011;33252;48.122;11.538;2023-11-22T00:54:49;10.93;;;6.55;;
47519;SDS011;33252;48.122;11.538;2023-11-22T00:57:14;13.00;;;7.20;;
47519;SDS011;33252;48.122;11.538;2023-11-22T00:59:40;13.85;;;7.60;;
47519;SDS011;33252;48.122;11.538;2023-11-22T01:02:06;13.65;;;7.35;;
47519;SDS011;33252;48.122;11.538;2023-11-22T01:04:33;12.23;;;6.60;;
47519;SDS011;33252;48.122;11.538;2023-11-22T01:07:00;11.40;;;7.15;;
47519;SDS011;33252;48.122;11.538;2023-11-22T01:09:26;14.60;;;7.60;;
47519;SDS011;33252;48.122;11.538;2023-11-22T01:11:53;12.35;;;6.43;;
47519;SDS011;33252;48.122;11.538;2023-11-22T01:14:19;11.18;;;7.47;;
47519;SDS011;33252;48.122;11.538;2023-11-22T01:16:44;13.23;;;7.20;;
47519;SDS011;33252;48.122;11.538;2023-11-22T01:19:10;13.90;;;7.05;;
47519;SDS011;33252;48.122;11.538;2023-11-22T01:21:36;13.25;;;7.43;;
47519;SDS011;33252;48.122;11.538;2023-11-22T01:24:02;10.50;;;6.82;;
47519;SDS011;33252;48.122;11.538;2023-11-22T01:26:27;13.85;;;7.63;;
47519;SDS011;33252;48.122;11.538;2023-11-22T01:28:53;9.25;;;6.30;;
47519;SDS011;33252;48.122;11.538;2023-11-22T01:31:18;9.77;;;6.10;;
47519;SDS011;33252;48.122;11.538;2023-11-22T01:33:48;10.07;;;5.97;;
47519;SDS011;33252;48.122;11.538;2023-11-22T01:36:13;10.82;;;6.45;;
47519;SDS011;33252;48.122;11.538;2023-11-22T01:38:40;10.10;;;7.28;;
47519;SDS011;33252;48.122;11.538;2023-11-22T01:41:06;13.35;;;7.43;;
47519;SDS011;33252;48.122;11.538;2023-11-22T01:43:32;15.95;;;6.78;;
47519;SDS011;33252;48.122;11.538;2023-11-22T01:45:57;12.23;;;7.53;;
47519;SDS011;33252;48.122;11.538;2023-11-22T01:48:23;10.57;;;7.05;;
47519;SDS011;33252;48.122;11.538;2023-11-22T01:50:49;11.38;;;7.53;;
47519;SDS011;33252;48.122;11.538;2023-11-22T01:53:15;9.70;;;6.57;;
47519;SDS011;33252;48.122;11.538;2023-11-22T01:55:41;12.93;;;7.72;;
47519;SDS011;33252;48.122;11.538;2023-11-22T01:58:08;12.57;;;7.75;;
47519;SDS011;33252;48.122;11.538;2023-11-22T02:00:42;10.38;;;6.35;;
47519;SDS011;33252;48.122;11.538;2023-11-22T02:03:11;12.02;;;6.63;;
47519;SDS011;33252;48.122;11.538;2023-11-22T02:05:39;11.38;;;5.82;;
47519;SDS011;33252;48.122;11.538;2023-11-22T02:08:07;10.23;;;6.43;;
47519;SDS011;33252;48.122;11.538;2023-11-22T02:10:36;11.32;;;7.50;;
47519;SDS011;33252;48.122;11.538;2023-11-22T02:13:02;10.68;;;6.47;;
47519;SDS011;33252;48.122;11.538;2023-11-22T02:15:30;12.15;;;6.20;;
47519;SDS011;33252;48.122;11.538;2023-11-22T02:17:56;9.02;;;5.97;;
47519;SDS011;33252;48.122;11.538;2023-11-22T02:20:22;8.05;;;5.22;;
47519;SDS011;33252;48.122;11.538;2023-11-22T02:22:47;8.15;;;5.20;;
47519;SDS011;33252;48.122;11.538;2023-11-22T02:25:13;6.95;;;4.85;;
47519;SDS011;33252;48.122;11.538;2023-11-22T02:27:40;6.97;;;3.90;;
47519;SDS011;33252;48.122;11.538;2023-11-22T02:30:07;4.05;;;2.75;;
47519;SDS011;33252;48.122;11.538;2023-11-22T02:32:33;4.85;;;3.05;;
47519;SDS011;33252;48.122;11.538;2023-11-22T02:34:59;5.13;;;2.25;;
47519;SDS011;33252;48.122;11.538;2023-11-22T02:37:25;3.70;;;2.35;;
47519;SDS011;33252;48.122;11.538;2023-11-22T02:39:58;2.05;;;1.60;;
47519;SDS011;33252;48.122;11.538;2023-11-22T02:42:30;4.40;;;1.63;;
47519;SDS011;33252;48.122;11.538;2023-11-22T02:44:55;2.53;;;1.33;;
47519;SDS011;33252;48.122;11.538;2023-11-22T02:47:22;2.53;;;1.13;;
47519;SDS011;33252;48.122;11.538;2023-11-22T02:49:48;2.30;;;1.50;;
47519;SDS011;33252;48.122;11.538;2023-11-22T02:52:14;3.28;;;1.90;;
47519;SDS011;33252;48.122;11.538;2023-11-22T02:54:42;2.47;;;1.42;;
47519;SDS011;33252;48.122;11.538;2023-11-22T02:57:11;3.80;;;1.70;;
47519;SDS011;33252;48.122;11.538;2023-11-22T02:59:37;4.75;;;1.88;;
47519;SDS011;33252;48.122;11.538;2023-11-22T03:02:06;4.03;;;2.42;;
47519;SDS011;33252;48.122;11.538;2023-11-22T03:04:32;3.88;;;2.67;;
47519;SDS011;33252;48.122;11.538;2023-11-22T03:06:58;4.28;;;2.53;;
47519;SDS011;33252;48.122;11.538;2023-11-22T03:09:24;3.55;;;1.90;;
47519;SDS011;33252;48.122;11.538;2023-11-22T03:11:52;5.22;;;1.95;;
47519;SDS011;33252;48.122;11.538;2023-11-22T03:14:17;3.00;;;1.45;;
47519;SDS011;33252;48.122;11.538;2023-11-22T03:16:44;2.95;;;1.13;;
47519;SDS011;33252;48.122;11.538;2023-11-22T03:19:10;3.17;;;1.52;;
47519;SDS011;33252;48.122;11.538;2023-11-22T03:21:38;1.67;;;1.10;;
47519;SDS011;33252;48.122;11.538;2023-11-22T03:24:04;2.30;;;1.35;;
47519;SDS011;33252;48.122;11.538;2023-11-22T03:26:30;2.97;;;1.40;;
47519;SDS011;33252;48.122;11.538;2023-11-22T03:28:55;4.50;;;1.45;;
47519;SDS011;33252;48.122;11.538;2023-11-22T03:31:21;2.65;;;1.38;;
47519;SDS011;33252;48.122;11.538;2023-11-22T03:33:46;2.70;;;1.80;;
47519;SDS011;33252;48.122;11.538;2023-11-22T03:36:12;3.05;;;1.58;;
47519;SDS011;33252;48.122;11.538;2023-11-22T03:38:39;4.10;;;1.85;;
47519;SDS011;33252;48.122;11.538;2023-11-22T03:41:05;3.17;;;1.67;;
47519;SDS011;33252;48.122;11.538;2023-11-22T03:43:30;4.70;;;2.65;;
47519;SDS011;33252;48.122;11.538;2023-11-22T03:45:56;5.00;;;1.88;;
47519;SDS011;33252;48.122;11.538;2023-11-22T03:48:21;3.90;;;2.00;;
47519;SDS011;33252;48.122;11.538;2023-11-22T03:50:48;4.43;;;2.17;;
47519;SDS011;33252;48.122;11.538;2023-11-22T03:53:14;2.95;;;1.67;;
47519;SDS011;33252;48.122;11.538;2023-11-22T03:55:40;3.20;;;1.75;;
47519;SDS011;33252;48.122;11.538;2023-11-22T03:58:05;3.67;;;2.20;;
47519;SDS011;33252;48.122;11.538;2023-11-22T04:00:32;3.83;;;2.33;;
47519;SDS011;33252;48.122;11.538;2023-11-22T04:02:58;3.67;;;2.05;;
47519;SDS011;33252;48.122;11.538;2023-11-22T04:05:26;7.30;;;2.47;;
47519;SDS011;33252;48.122;11.538;2023-11-22T04:07:52;3.92;;;1.95;;
47519;SDS011;33252;48.122;11.538;2023-11-22T04:10:18;4.65;;;2.38;;
47519;SDS011;33252;48.122;11.538;2023-11-22T04:12:44;2.65;;;2.03;;
47519;SDS011;33252;48.122;11.538;2023-11-22T04:15:10;3.38;;;1.70;;
47519;SDS011;33252;48.122;11.538;2023-11-22T04:17:36;3.55;;;1.85;;
47519;SDS011;33252;48.122;11.538;2023-11-22T04:20:03;3.47;;;2.40;;
47519;SDS011;33252;48.122;11.538;2023-11-22T04:22:34;4.40;;;2.28;;
47519;SDS011;33252;48.122;11.538;2023-11-22T04:24:59;3.55;;;2.60;;
47519;SDS011;33252;48.122;11.538;2023-11-22T04:27:26;3.97;;;2.38;;
47519;SDS011;33252;48.122;11.538;2023-11-22T04:29:51;4.05;;;2.22;;
47519;SDS011;33252;48.122;11.538;2023-11-22T04:32:17;5.47;;;2.40;;
47519;SDS011;33252;48.122;11.538;2023-11-22T04:34:42;3.47;;;2.15;;
47519;SDS011;33252;48.122;11.538;2023-11-22T04:37:08;2.83;;;1.70;;
47519;SDS011;33252;48.122;11.538;2023-11-22T04:39:33;4.95;;;3.17;;
47519;SDS011;33252;48.122;11.538;2023-11-22T04:41:59;3.15;;;2.08;;
47519;SDS011;33252;48.122;11.538;2023-11-22T04:44:25;3.50;;;2.20;;
47519;SDS011;33252;48.122;11.538;2023-11-22T04:46:50;5.65;;;2.88;;
47519;SDS011;33252;48.122;11.538;2023-11-22T04:49:16;4.00;;;2.17;;
47519;SDS011;33252;48.122;11.538;2023-11-22T04:51:42;3.58;;;2.10;;
47519;SDS011;33252;48.122;11.538;2023-11-22T04:54:09;3.95;;;1.73;;
47519;SDS011;33252;48.122;11.538;2023-11-22T04:56:34;3.40;;;1.90;;
47519;SDS011;33252;48.122;11.538;2023-11-22T04:59:00;4.57;;;2.08;;
47519;SDS011;33252;48.122;11.538;2023-11-22T05:01:31;4.97;;;2.58;;
47519;SDS011;33252;48.122;11.538;2023-11-22T05:03:59;2.42;;;1.77;;
47519;SDS011;33252;48.122;11.538;2023-11-22T05:06:25;2.83;;;1.63;;
47519;SDS011;33252;48.122;11.538;2023-11-22T05:08:52;3.67;;;2.10;;
47519;SDS011;33252;48.122;11.538;2023-11-22T05:11:18;4.07;;;2.20;;
47519;SDS011;33252;48.122;11.538;2023-11-22T05:13:44;5.20;;;2.60;;
47519;SDS011;33252;48.122;11.538;2023-11-22T05:16:10;3.60;;;1.60;;
47519;SDS011;33252;48.122;11.538;2023-11-22T05:18:35;4.95;;;2.15;;
47519;SDS011;33252;48.122;11.538;2023-11-22T05:21:01;5.05;;;2.28;;
47519;SDS011;33252;48.122;11.538;2023-11-22T05:23:29;3.78;;;1.92;;
47519;SDS011;33252;48.122;11.538;2023-11-22T05:25:56;5.38;;;2.80;;
47519;SDS011;33252;48.122;11.538;2023-11-22T05:28:22;3.95;;;2.10;;
47519;SDS011;33252;48.122;11.538;2023-11-22T05:30:47;4.80;;;2.83;;
47519;SDS011;33252;48.122;11.538;2023-11-22T05:33:13;4.20;;;2.15;;
47519;SDS011;33252;48.122;11.538;2023-11-22T05:35:39;4.45;;;2.20;;
47519;SDS011;33252;48.122;11.538;2023-11-22T05:38:06;5.93;;;2.17;;
47519;SDS011;33252;48.122;11.538;2023-11-22T05:40:32;3.10;;;1.52;;
47519;SDS011;33252;48.122;11.538;2023-11-22T05:42:58;4.00;;;1.70;;
47519;SDS011;33252;48.122;11.538;2023-11-22T05:45:23;3.10;;;1.45;;
47519;SDS011;33252;48.122;11.538;2023-11-22T05:47:50;3.20;;;1.55;;
47519;SDS011;33252;48.122;11.538;2023-11-22T05:50:16;2.03;;;1.25;;
47519;SDS011;33252;48.122;11.538;2023-11-22T05:52:41;2.78;;;1.77;;
47519;SDS011;33252;48.122;11.538;2023-11-22T05:55:08;3.70;;;1.70;;
47519;SDS011;33252;48.122;11.538;2023-11-22T05:57:33;3.20;;;1.48;;
47519;SDS011;33252;48.122;11.538;2023-11-22T05:59:59;3.08;;;1.58;;
47519;SDS011;33252;48.122;11.538;2023-11-22T06:02:25;3.15;;;1.88;;
47519;SDS011;33252;48.122;11.538;2023-11-22T06:04:50;3.92;;;1.70;;
47519;SDS011;33252;48.122;11.538;2023-11-22T06:07:16;3.42;;;1.80;;
47519;SDS011;33252;48.122;11.538;2023-11-22T06:09:41;3.03;;;1.55;;
47519;SDS011;33252;48.122;11.538;2023-11-22T06:12:07;4.20;;;1.65;;
47519;SDS011;33252;48.122;11.538;2023-11-22T06:14:32;3.90;;;1.52;;
47519;SDS011;33252;48.122;11.538;2023-11-22T06:16:58;3.53;;;1.95;;
47519;SDS011;33252;48.122;11.538;2023-11-22T06:19:23;3.72;;;1.65;;
47519;SDS011;33252;48.122;11.538;2023-11-22T06:21:49;2.90;;;1.70;;
47519;SDS011;33252;48.122;11.538;2023-11-22T06:24:14;3.45;;;2.03;;
47519;SDS011;33252;48.122;11.538;2023-11-22T06:26:44;3.92;;;1.50;;
47519;SDS011;33252;48.122;11.538;2023-11-22T06:29:11;3.72;;;2.00;;
47519;SDS011;33252;48.122;11.538;2023-11-22T06:31:37;3.38;;;2.03;;
47519;SDS011;33252;48.122;11.538;2023-11-22T06:34:02;3.53;;;1.83;;
47519;SDS011;33252;48.122;11.538;2023-11-22T06:36:28;4.72;;;2.60;;
47519;SDS011;33252;48.122;11.538;2023-11-22T06:38:54;4.60;;;2.58;;
47519;SDS011;33252;48.122;11.538;2023-11-22T06:41:20;4.43;;;2.35;;
47519;SDS011;33252;48.122;11.538;2023-11-22T06:43:46;6.20;;;3.53;;
47519;SDS011;33252;48.122;11.538;2023-11-22T06:46:13;6.45;;;3.78;;
47519;SDS011;33252;48.122;11.538;2023-11-22T06:48:41;5.95;;;4.03;;
47519;SDS011;33252;48.122;11.538;2023-11-22T06:51:08;9.13;;;4.93;;
47519;SDS011;33252;48.122;11.538;2023-11-22T06:53:34;7.53;;;4.53;;
47519;SDS011;33252;48.122;11.538;2023-11-22T06:56:00;7.53;;;4.50;;
47519;SDS011;33252;48.122;11.538;2023-11-22T06:58:26;8.13;;;5.03;;
47519;SDS011;33252;48.122;11.538;2023-11-22T07:00:52;9.07;;;4.68;;
47519;SDS011;33252;48.122;11.538;2023-11-22T07:03:17;8.25;;;4.45;;
47519;SDS011;33252;48.122;11.538;2023-11-22T07:05:43;8.93;;;4.45;;
47519;SDS011;33252;48.122;11.538;2023-11-22T07:08:09;8.52;;;4.95;;
47519;SDS011;33252;48.122;11.538;2023-11-22T07:10:36;6.40;;;4.13;;
47519;SDS011;33252;48.122;11.538;2023-11-22T07:13:01;6.85;;;4.07;;
47519;SDS011;33252;48.122;11.538;2023-11-22T07:15:27;6.55;;;4.68;;
47519;SDS011;33252;48.122;11.538;2023-11-22T07:17:53;6.32;;;4.15;;
47519;SDS011;33252;48.122;11.538;2023-11-22T07:20:19;7.13;;;3.95;;
47519;SDS011;33252;48.122;11.538;2023-11-22T07:22:45;7.65;;;4.28;;
47519;SDS011;33252;48.122;11.538;2023-11-22T07:25:11;6.78;;;3.72;;
47519;SDS011;33252;48.122;11.538;2023-11-22T07:27:46;5.35;;;3.42;;
47519;SDS011;33252;48.122;11.538;2023-11-22T07:30:12;4.68;;;3.72;;
47519;SDS011;33252;48.122;11.538;2023-11-22T07:32:39;6.60;;;3.42;;
47519;SDS011;33252;48.122;11.538;2023-11-22T07:35:06;5.43;;;2.83;;
47519;SDS011;33252;48.122;11.538;2023-11-22T07:37:33;6.07;;;3.67;;
47519;SDS011;33252;48.122;11.538;2023-11-22T07:40:00;7.03;;;3.42;;
47519;SDS011;33252;48.122;11.538;2023-11-22T07:42:28;5.70;;;3.58;;
47519;SDS011;33252;48.122;11.538;2023-11-22T07:44:54;5.35;;;3.97;;
47519;SDS011;33252;48.122;11.538;2023-11-22T07:47:21;6.72;;;3.58;;
47519;SDS011;33252;48.122;11.538;2023-11-22T07:49:47;5.13;;;3.63;;
47519;SDS011;33252;48.122;11.538;2023-11-22T07:52:13;6.43;;;3.72;;
47519;SDS011;33252;48.122;11.538;2023-11-22T07:54:39;5.82;;;3.88;;
47519;SDS011;33252;48.122;11.538;2023-11-22T07:57:05;4.38;;;2.85;;
47519;SDS011;33252;48.122;11.538;2023-11-22T07:59:32;6.35;;;3.47;;
47519;SDS011;33252;48.122;11.538;2023-11-22T08:01:57;6.00;;;3.85;;
47519;SDS011;33252;48.122;11.538;2023-11-22T08:04:23;7.07;;;4.25;;
47519;SDS011;33252;48.122;11.538;2023-11-22T08:06:49;6.93;;;3.80;;
47519;SDS011;33252;48.122;11.538;2023-11-22T08:09:16;6.70;;;3.65;;
47519;SDS011;33252;48.122;11.538;2023-11-22T08:11:42;8.07;;;4.70;;
47519;SDS011;33252;48.122;11.538;2023-11-22T08:14:08;7.00;;;4.60;;
47519;SDS011;33252;48.122;11.538;2023-11-22T08:16:34;6.65;;;4.30;;
47519;SDS011;33252;48.122;11.538;2023-11-22T08:19:03;7.45;;;4.90;;
47519;SDS011;33252;48.122;11.538;2023-11-22T08:21:30;6.40;;;4.35;;
47519;SDS011;33252;48.122;11.538;2023-11-22T08:23:56;6.15;;;3.97;;
47519;SDS011;33252;48.122;11.538;2023-11-22T08:26:21;4.85;;;3.10;;
47519;SDS011;33252;48.122;11.538;2023-11-22T08:28:47;6.47;;;4.40;;
47519;SDS011;33252;48.122;11.538;2023-11-22T08:31:12;9.27;;;4.40;;
47519;SDS011;33252;48.122;11.538;2023-11-22T08:33:38;6.72;;;4.20;;
47519;SDS011;33252;48.122;11.538;2023-11-22T08:36:05;9.38;;;4.95;;
47519;SDS011;33252;48.122;11.538;2023-11-22T08:38:31;6.18;;;4.03;;
47519;SDS011;33252;48.122;11.538;2023-11-22T08:41:03;7.85;;;4.88;;
47519;SDS011;33252;48.122;11.538;2023-11-22T08:43:30;8.15;;;4.97;;
47519;SDS011;33252;48.122;11.538;2023-11-22T08:45:56;9.77;;;5.40;;
47519;SDS011;33252;48.122;11.538;2023-11-22T08:48:23;9.15;;;4.68;;
47519;SDS011;33252;48.122;11.538;2023-11-22T08:50:49;6.75;;;4.32;;
47519;SDS011;33252;48.122;11.538;2023-11-22T08:53:15;7.47;;;4.30;;
47519;SDS011;33252;48.122;11.538;2023-11-22T08:55:41;7.32;;;4.65;;
47519;SDS011;33252;48.122;11.538;2023-11-22T08:58:09;7.40;;;4.22;;
47519;SDS011;33252;48.122;11.538;2023-11-22T09:00:35;6.97;;;4.50;;
47519;SDS011;33252;48.122;11.538;2023-11-22T09:03:01;5.55;;;4.13;;
47519;SDS011;33252;48.122;11.538;2023-11-22T09:05:28;6.47;;;4.13;;
47519;SDS011;33252;48.122;11.538;2023-11-22T09:07:53;5.63;;;4.43;;
47519;SDS011;33252;48.122;11.538;2023-11-22T09:10:20;7.00;;;4.40;;
47519;SDS011;33252;48.122;11.538;2023-11-22T09:12:47;7.07;;;4.75;;
47519;SDS011;33252;48.122;11.538;2023-11-22T09:15:13;7.43;;;4.97;;
47519;SDS011;33252;48.122;11.538;2023-11-22T09:17:44;9.70;;;4.68;;
47519;SDS011;33252;48.122;11.538;2023-11-22T09:20:11;6.63;;;4.78;;
47519;SDS011;33252;48.122;11.538;2023-11-22T09:22:44;7.32;;;4.60;;
47519;SDS011;33252;48.122;11.538;2023-11-22T09:25:13;8.48;;;4.43;;
47519;SDS011;33252;48.122;11.538;2023-11-22T09:27:44;6.95;;;4.18;;
47519;SDS011;33252;48.122;11.538;2023-11-22T09:30:12;7.35;;;4.47;;
47519;SDS011;33252;48.122;11.538;2023-11-22T09:32:44;6.82;;;4.28;;
47519;SDS011;33252;48.122;11.538;2023-11-22T09:35:11;6.50;;;3.67;;
47519;SDS011;33252;48.122;11.538;2023-11-22T09:37:38;7.65;;;4.85;;
47519;SDS011;33252;48.122;11.538;2023-11-22T09:40:07;6.32;;;4.40;;
47519;SDS011;33252;48.122;11.538;2023-11-22T09:42:34;5.47;;;3.92;;
47519;SDS011;33252;48.122;11.538;2023-11-22T09:44:59;6.50;;;3.88;;
47519;SDS011;33252;48.122;11.538;2023-11-22T09:47:25;7.40;;;3.97;;
47519;SDS011;33252;48.122;11.538;2023-11-22T09:49:53;6.47;;;3.85;;
47519;SDS011;33252;48.122;11.538;2023-11-22T09:52:22;6.03;;;4.13;;
47519;SDS011;33252;48.122;11.538;2023-11-22T09:54:50;7.22;;;3.90;;
47519;SDS011;33252;48.122;11.538;2023-11-22T09:57:17;7.50;;;4.55;;
47519;SDS011;33252;48.122;11.538;2023-11-22T09:59:46;6.40;;;3.83;;
47519;SDS011;33252;48.122;11.538;2023-11-22T10:02:17;5.28;;;3.72;;
47519;SDS011;33252;48.122;11.538;2023-11-22T10:04:43;6.45;;;3.28;;
47519;SDS011;33252;48.122;11.538;2023-11-22T10:07:08;5.32;;;3.72;;
47519;SDS011;33252;48.122;11.538;2023-11-22T10:09:35;6.15;;;3.65;;
47519;SDS011;33252;48.122;11.538;2023-11-22T10:12:03;6.40;;;4.00;;
47519;SDS011;33252;48.122;11.538;2023-11-22T10:14:30;6.53;;;4.82;;
47519;SDS011;33252;48.122;11.538;2023-11-22T10:17:01;5.57;;;3.47;;
47519;SDS011;33252;48.122;11.538;2023-11-22T10:19:27;4.68;;;2.80;;
47519;SDS011;33252;48.122;11.538;2023-11-22T10:22:03;5.80;;;3.67;;
47519;SDS011;33252;48.122;11.538;2023-11-22T10:24:33;5.95;;;3.88;;
47519;SDS011;33252;48.122;11.538;2023-11-22T10:26:59;4.75;;;3.05;;
47519;SDS011;33252;48.122;11.538;2023-11-22T10:29:25;4.35;;;3.10;;
47519;SDS011;33252;48.122;11.538;2023-11-22T10:31:51;6.35;;;2.83;;
47519;SDS011;33252;48.122;11.538;2023-11-22T10:34:21;4.38;;;3.28;;
47519;SDS011;33252;48.122;11.538;2023-11-22T10:36:48;5.75;;;3.35;;
47519;SDS011;33252;48.122;11.538;2023-11-22T10:39:18;4.55;;;3.67;;
47519;SDS011;33252;48.122;11.538;2023-11-22T10:41:44;4.68;;;3.42;;
47519;SDS011;33252;48.122;11.538;2023-11-22T10:44:11;5.85;;;3.45;;
47519;SDS011;33252;48.122;11.538;2023-11-22T10:46:36;7.53;;;3.65;;
47519;SDS011;33252;48.122;11.538;2023-11-22T10:49:04;7.88;;;5.22;;
47519;SDS011;33252;48.122;11.538;2023-11-22T10:51:31;4.63;;;3.28;;
47519;SDS011;33252;48.122;11.538;2023-11-22T10:53:58;5.05;;;3.70;;
47519;SDS011;33252;48.122;11.538;2023-11-22T10:56:28;4.55;;;3.20;;
47519;SDS011;33252;48.122;11.538;2023-11-22T10:59:02;6.00;;;2.97;;
47519;SDS011;33252;48.122;11.538;2023-11-22T11:01:34;5.05;;;2.90;;
47519;SDS011;33252;48.122;11.538;2023-11-22T11:04:01;4.57;;;3.60;;
47519;SDS011;33252;48.122;11.538;2023-11-22T11:06:32;6.50;;;3.30;;
47519;SDS011;33252;48.122;11.538;2023-11-22T11:08:59;4.07;;;2.72;;
47519;SDS011;33252;48.122;11.538;2023-11-22T11:11:32;6.40;;;3.90;;
47519;SDS011;33252;48.122;11.538;2023-11-22T11:13:59;5.65;;;3.30;;
47519;SDS011;33252;48.122;11.538;2023-11-22T11:16:26;5.10;;;3.70;;
47519;SDS011;33252;48.122;11.538;2023-11-22T11:18:53;4.55;;;3.13;;
47519;SDS011;33252;48.122;11.538;2023-11-22T11:21:19;4.65;;;3.00;;
47519;SDS011;33252;48.122;11.538;2023-11-22T11:23:45;6.03;;;3.55;;
47519;SDS011;33252;48.122;11.538;2023-11-22T11:26:15;5.70;;;3.13;;
47519;SDS011;33252;48.122;11.538;2023-11-22T11:28:43;4.38;;;3.75;;
47519;SDS011;33252;48.122;11.538;2023-11-22T11:31:12;4.80;;;3.30;;
47519;SDS011;33252;48.122;11.538;2023-11-22T11:36:27;4.45;;;2.90;;
47519;SDS011;33252;48.122;11.538;2023-11-22T11:38:54;4.65;;;3.60;;
47519;SDS011;33252;48.122;11.538;2023-11-22T11:41:28;5.18;;;2.88;;
47519;SDS011;33252;48.122;11.538;2023-11-22T11:43:55;4.93;;;3.45;;
47519;SDS011;33252;48.122;11.538;2023-11-22T11:46:22;3.10;;;2.50;;
47519;SDS011;33252;48.122;11.538;2023-11-22T11:48:49;4.43;;;3.05;;
47519;SDS011;33252;48.122;11.538;2023-11-22T11:51:16;5.38;;;2.78;;
47519;SDS011;33252;48.122;11.538;2023-11-22T11:53:43;4.28;;;3.05;;
47519;SDS011;33252;48.122;11.538;2023-11-22T11:56:10;3.90;;;2.65;;
47519;SDS011;33252;48.122;11.538;2023-11-22T11:58:36;5.15;;;3.30;;
47519;SDS011;33252;48.122;11.538;2023-11-22T12:01:03;4.25;;;3.08;;
47519;SDS011;33252;48.122;11.538;2023-11-22T12:03:29;6.55;;;3.45;;
47519;SDS011;33252;48.122;11.538;2023-11-22T12:05:55;3.38;;;3.03;;
47519;SDS011;33252;48.122;11.538;2023-11-22T12:08:21;4.25;;;2.50;;
47519;SDS011;33252;48.122;11.538;2023-11-22T12:10:47;4.20;;;2.78;;
47519;SDS011;33252;48.122;11.538;2023-11-22T12:13:18;4.55;;;2.90;;
47519;SDS011;33252;48.122;11.538;2023-11-22T12:15:46;4.95;;;2.60;;
47519;SDS011;33252;48.122;11.538;2023-11-22T12:18:12;3.75;;;2.40;;
47519;SDS011;33252;48.122;11.538;2023-11-22T12:20:38;3.35;;;2.50;;
47519;SDS011;33252;48.122;11.538;2023-11-22T12:23:04;3.20;;;2.30;;
47519;SDS011;33252;48.122;11.538;2023-11-22T12:25:30;3.92;;;2.47;;
47519;SDS011;33252;48.122;11.538;2023-11-22T12:27:56;4.57;;;3.10;;
47519;SDS011;33252;48.122;11.538;2023-11-22T12:30:31;4.07;;;3.03;;
47519;SDS011;33252;48.122;11.538;2023-11-22T12:33:02;5.85;;;3.10;;
47519;SDS011;33252;48.122;11.538;2023-11-22T12:35:29;5.28;;;3.42;;
47519;SDS011;33252;48.122;11.538;2023-11-22T12:37:55;5.55;;;2.70;;
47519;SDS011;33252;48.122;11.538;2023-11-22T12:40:23;3.22;;;2.40;;
47519;SDS011;33252;48.122;11.538;2023-11-22T12:42:51;4.70;;;3.75;;
47519;SDS011;33252;48.122;11.538;2023-11-22T12:45:19;8.60;;;3.35;;
47519;SDS011;33252;48.122;11.538;2023-11-22T12:47:45;4.07;;;3.10;;
47519;SDS011;33252;48.122;11.538;2023-11-22T12:50:28;3.47;;;2.70;;
47519;SDS011;33252;48.122;11.538;2023-11-22T12:55:45;3.67;;;2.65;;
47519;SDS011;33252;48.122;11.538;2023-11-22T12:58:13;3.80;;;3.03;;
47519;SDS011;33252;48.122;11.538;2023-11-22T13:00:39;3.97;;;2.85;;
47519;SDS011;33252;48.122;11.538;2023-11-22T13:03:07;4.47;;;3.03;;
47519;SDS011;33252;48.122;11.538;2023-11-22T13:05:37;4.93;;;3.00;;
47519;SDS011;33252;48.122;11.538;2023-11-22T13:08:04;5.28;;;3.22;;
47519;SDS011;33252;48.122;11.538;2023-11-22T13:10:30;4.50;;;3.47;;
47519;SDS011;33252;48.122;11.538;2023-11-22T13:12:56;3.42;;;2.70;;
47519;SDS011;33252;48.122;11.538;2023-11-22T13:15:22;4.88;;;2.65;;
47519;SDS011;33252;48.122;11.538;2023-11-22T13:17:55;3.85;;;2.95;;
47519;SDS011;33252;48.122;11.538;2023-11-22T13:20:21;5.03;;;3.50;;
47519;SDS011;33252;48.122;11.538;2023-11-22T13:22:48;3.83;;;2.85;;
47519;SDS011;33252;48.122;11.538;2023-11-22T13:25:14;5.63;;;3.33;;
47519;SDS011;33252;48.122;11.538;2023-11-22T13:27:40;5.50;;;3.67;;
47519;SDS011;33252;48.122;11.538;2023-11-22T13:30:06;4.30;;;3.58;;
47519;SDS011;33252;48.122;11.538;2023-11-22T13:32:32;4.40;;;3.40;;
47519;SDS011;33252;48.122;11.538;2023-11-22T13:34:58;3.45;;;2.95;;
47519;SDS011;33252;48.122;11.538;2023-11-22T13:37:24;5.50;;;3.20;;
47519;SDS011;33252;48.122;11.538;2023-11-22T13:39:49;5.05;;;2.97;;
47519;SDS011;33252;48.122;11.538;2023-11-22T13:42:15;5.35;;;3.40;;
47519;SDS011;33252;48.122;11.538;2023-11-22T13:44:41;4.60;;;3.35;;
47519;SDS011;33252;48.122;11.538;2023-11-22T13:47:09;5.10;;;3.13;;
47519;SDS011;33252;48.122;11.538;2023-11-22T13:49:35;4.78;;;3.33;;
47519;SDS011;33252;48.122;11.538;2023-11-22T13:52:01;4.07;;;2.90;;
47519;SDS011;33252;48.122;11.538;2023-11-22T13:54:26;3.50;;;2.65;;
47519;SDS011;33252;48.122;11.538;2023-11-22T13:56:52;3.53;;;2.45;;
47519;SDS011;33252;48.122;11.538;2023-11-22T13:59:18;4.25;;;2.78;;
47519;SDS011;33252;48.122;11.538;2023-11-22T14:01:44;3.35;;;2.67;;
47519;SDS011;33252;48.122;11.538;2023-11-22T14:04:10;4.13;;;3.15;;
47519;SDS011;33252;48.122;11.538;2023-11-22T14:06:36;4.30;;;3.17;;
47519;SDS011;33252;48.122;11.538;2023-11-22T14:09:01;3.92;;;3.03;;
47519;SDS011;33252;48.122;11.538;2023-11-22T14:11:27;4.63;;;3.35;;
47519;SDS011;33252;48.122;11.538;2023-11-22T14:13:53;4.72;;;2.65;;
47519;SDS011;33252;48.122;11.538;2023-11-22T14:16:18;5.75;;;3.35;;
47519;SDS011;33252;48.122;11.538;2023-11-22T14:18:44;3.58;;;2.95;;
47519;SDS011;33252;48.122;11.538;2023-11-22T14:21:10;4.43;;;3.15;;
47519;SDS011;33252;48.122;11.538;2023-11-22T14:23:35;5.38;;;2.90;;
47519;SDS011;33252;48.122;11.538;2023-11-22T14:26:02;5.57;;;3.65;;
47519;SDS011;33252;48.122;11.538;2023-11-22T14:28:28;5.60;;;3.80;;
47519;SDS011;33252;48.122;11.538;2023-11-22T14:30:54;5.43;;;3.30;;
47519;SDS011;33252;48.122;11.538;2023-11-22T14:33:20;5.10;;;3.38;;
47519;SDS011;33252;48.122;11.538;2023-11-22T14:35:46;3.40;;;2.50;;